Time,TemperatureF,DewpointF,PressureIn,WindDirection,WindDirectionDegrees,WindSpeedMPH,WindSpeedGustMPH,Humidity,HourlyPrecipIn,Conditions,Clouds,dailyrainin,SolarRadiationWatts/m^2,SoftwareType,DateUTC
2013-07-17 00:02:00,58.5,52.7,29.88,East,95,0.0,1.0,81,0.00,,,0.00,0,Wunderground v.1.15,2013-07-17 07:02:00,
2013-07-17 00:08:00,58.1,52.6,29.88,ESE,103,0.0,1.0,82,0.00,,,0.00,0,Wunderground v.1.15,2013-07-17 07:08:00,
2013-07-17 00:14:00,57.8,52.3,29.88,ESE,103,0.0,1.0,82,0.00,,,0.00,0,Wunderground v.1.15,2013-07-17 07:14:00,
2013-07-17 00:20:00,57.6,52.5,29.88,ESE,107,0.0,0.0,83,0.00,,,0.00,0,Wunderground v.1.15,2013-07-17 07:20:00,
2013-07-17 00:26:00,57.5,52.4,29.88,East,88,0.0,0.0,83,0.00,,,0.00,0,Wunderground v.1.15,2013-07-17 07:26:00,
2013-07-17 00:32:00,57.3,52.5,29.89,ESE,111,0.0,0.0,84,0.00,,,0.00,0,Wunderground v.1.15,2013-07-17 07:32:00,
2013-07-17 00:38:00,57.2,52.4,29.89,East,97,0.0,0.0,84,0.00,,,0.00,0,Wunderground v.1.15,2013-07-17 07:38:00,
2013-07-17 00:44:00,57.0,52.2,29.89,ESE,103,0.0,0.0,84,0.00,,,0.00,0,Wunderground v.1.15,2013-07-17 07:44:00,
2013-07-17 00:50:00,56.8,52.3,29.89,East,89,0.0,1.0,85,0.00,,,0.00,0,Wunderground v.1.15,2013-07-17 07:50:00,
2013-07-17 00:56:00,56.7,52.2,29.89,ESE,103,0.0,1.0,85,0.00,,,0.00,0,Wunderground v.1.15,2013-07-17 07:56:00,
2013-07-17 01:02:00,56.7,52.2,29.89,East,85,0.0,8.0,85,0.00,,,0.00,0,Wunderground v.1.15,2013-07-17 08:02:00,
2013-07-17 01:08:00,56.6,52.5,29.89,ESE,102,0.0,8.0,86,0.00,,,0.00,0,Wunderground v.1.15,2013-07-17 08:08:00,
2013-07-17 01:14:00,56.4,52.3,29.89,East,101,0.0,0.0,86,0.00,,,0.00,0,Wunderground v.1.15,2013-07-17 08:14:00,
2013-07-17 01:20:00,56.3,52.2,29.89,ESE,103,0.0,0.0,86,0.00,,,0.00,0,Wunderground v.1.15,2013-07-17 08:20:00,
2013-07-17 01:26:00,56.1,52.0,29.89,East,96,0.0,0.0,86,0.00,,,0.00,0,Wunderground v.1.15,2013-07-17 08:26:00,
2013-07-17 01:32:00,55.9,51.8,29.90,East,94,0.0,0.0,86,0.00,,,0.00,0,Wunderground v.1.15,2013-07-17 08:32:00,
2013-07-17 01:38:00,55.7,51.9,29.90,East,94,0.0,0.0,87,0.00,,,0.00,0,Wunderground v.1.15,2013-07-17 08:38:00,
2013-07-17 01:44:00,55.6,51.8,29.90,ESE,103,0.0,1.0,87,0.00,,,0.00,0,Wunderground v.1.15,2013-07-17 08:44:00,
2013-07-17 01:50:00,55.4,51.6,29.90,ESE,103,0.0,0.0,87,0.00,,,0.00,0,Wunderground v.1.15,2013-07-17 08:50:00,
2013-07-17 01:56:00,55.3,51.5,29.90,ESE,103,0.0,0.0,87,0.00,,,0.00,0,Wunderground v.1.15,2013-07-17 08:56:00,
2013-07-17 02:02:00,55.2,51.4,29.90,ESE,103,0.0,5.0,87,0.00,,,0.00,0,Wunderground v.1.15,2013-07-17 09:02:00,
2013-07-17 02:08:00,55.0,51.2,29.90,East,98,0.0,5.0,87,0.00,,,0.00,0,Wunderground v.1.15,2013-07-17 09:08:00,
2013-07-17 02:14:00,54.9,51.1,29.90,East,95,0.0,2.0,87,0.00,,,0.00,0,Wunderground v.1.15,2013-07-17 09:14:00,
2013-07-17 02:20:00,54.9,51.4,29.90,East,95,0.0,0.0,88,0.00,,,0.00,0,Wunderground v.1.15,2013-07-17 09:20:00,
2013-07-17 02:26:00,54.8,51.3,29.90,East,95,0.0,0.0,88,0.00,,,0.00,0,Wunderground v.1.15,2013-07-17 09:26:00,
2013-07-17 02:32:00,54.7,51.2,29.90,East,95,0.0,0.0,88,0.00,,,0.00,0,Wunderground v.1.15,2013-07-17 09:32:00,
2013-07-17 02:38:00,54.6,51.1,29.90,East,95,0.0,0.0,88,0.00,,,0.00,0,Wunderground v.1.15,2013-07-17 09:38:00,
2013-07-17 02:44:00,54.5,51.0,29.91,East,95,0.0,0.0,88,0.00,,,0.00,0,Wunderground v.1.15,2013-07-17 09:44:00,
2013-07-17 02:50:00,54.4,50.9,29.91,East,95,0.0,0.0,88,0.00,,,0.00,0,Wunderground v.1.15,2013-07-17 09:50:00,
2013-07-17 02:56:00,54.3,50.8,29.91,East,95,0.0,0.0,88,0.00,,,0.00,0,Wunderground v.1.15,2013-07-17 09:56:00,
2013-07-17 03:02:00,54.1,50.6,29.91,East,95,0.0,2.0,88,0.00,,,0.00,0,Wunderground v.1.15,2013-07-17 10:02:00,
2013-07-17 03:08:00,54.1,50.6,29.91,East,95,0.0,2.0,88,0.00,,,0.00,0,Wunderground v.1.15,2013-07-17 10:08:00,
2013-07-17 03:14:00,54.0,50.5,29.91,East,95,0.0,0.0,88,0.00,,,0.00,0,Wunderground v.1.15,2013-07-17 10:14:00,
2013-07-17 03:20:00,54.0,50.8,29.91,East,95,0.0,0.0,89,0.00,,,0.00,0,Wunderground v.1.15,2013-07-17 10:20:00,
2013-07-17 03:26:00,53.9,50.4,29.91,East,95,0.0,0.0,88,0.00,,,0.00,0,Wunderground v.1.15,2013-07-17 10:26:00,
2013-07-17 03:32:00,53.9,50.4,29.91,East,95,0.0,0.0,88,0.00,,,0.00,0,Wunderground v.1.15,2013-07-17 10:32:00,
2013-07-17 03:38:00,53.8,50.6,29.91,East,95,0.0,0.0,89,0.00,,,0.00,0,Wunderground v.1.15,2013-07-17 10:38:00,
2013-07-17 03:44:00,53.7,50.5,29.92,East,95,0.0,0.0,89,0.00,,,0.00,0,Wunderground v.1.15,2013-07-17 10:44:00,
2013-07-17 03:50:00,53.6,50.4,29.92,East,95,0.0,0.0,89,0.00,,,0.00,0,Wunderground v.1.15,2013-07-17 10:50:00,
2013-07-17 03:56:00,53.6,50.4,29.92,East,95,0.0,0.0,89,0.00,,,0.00,0,Wunderground v.1.15,2013-07-17 10:56:00,
2013-07-17 04:02:00,53.5,50.3,29.92,East,95,0.0,2.0,89,0.00,,,0.00,0,Wunderground v.1.15,2013-07-17 11:02:00,
2013-07-17 04:08:00,53.5,50.3,29.92,East,95,0.0,2.0,89,0.00,,,0.00,0,Wunderground v.1.15,2013-07-17 11:08:00,
2013-07-17 04:14:00,53.4,50.2,29.92,East,95,0.0,0.0,89,0.00,,,0.00,0,Wunderground v.1.15,2013-07-17 11:14:00,
2013-07-17 04:20:00,53.4,50.2,29.92,East,95,0.0,0.0,89,0.00,,,0.00,0,Wunderground v.1.15,2013-07-17 11:20:00,
2013-07-17 04:26:00,53.4,50.2,29.92,East,95,0.0,0.0,89,0.00,,,0.00,0,Wunderground v.1.15,2013-07-17 11:26:00,
2013-07-17 04:32:00,53.3,50.1,29.93,East,95,0.0,0.0,89,0.00,,,0.00,0,Wunderground v.1.15,2013-07-17 11:32:00,
2013-07-17 04:38:00,53.2,50.0,29.93,East,95,0.0,0.0,89,0.00,,,0.00,0,Wunderground v.1.15,2013-07-17 11:38:00,
2013-07-17 04:44:00,53.1,49.9,29.93,East,95,0.0,0.0,89,0.00,,,0.00,0,Wunderground v.1.15,2013-07-17 11:44:00,
2013-07-17 04:50:00,53.0,49.8,29.93,East,95,0.0,0.0,89,0.00,,,0.00,0,Wunderground v.1.15,2013-07-17 11:50:00,
2013-07-17 04:56:00,52.9,49.7,29.93,NNW,348,0.0,0.0,89,0.00,,,0.00,0,Wunderground v.1.15,2013-07-17 11:56:00,
2013-07-17 05:02:00,52.8,49.6,29.93,NNW,342,0.0,1.0,89,0.00,,,0.00,0,Wunderground v.1.15,2013-07-17 12:02:00,
2013-07-17 05:08:00,52.8,49.6,29.94,NNW,342,0.0,1.0,89,0.00,,,0.00,0,Wunderground v.1.15,2013-07-17 12:08:00,
2013-07-17 05:14:00,52.7,49.5,29.94,NNW,342,0.0,0.0,89,0.00,,,0.00,0,Wunderground v.1.15,2013-07-17 12:14:00,
2013-07-17 05:20:00,52.5,49.4,29.94,NNW,342,0.0,0.0,89,0.00,,,0.00,0,Wunderground v.1.15,2013-07-17 12:20:00,
2013-07-17 05:26:00,52.5,49.7,29.94,NNW,342,0.0,0.0,90,0.00,,,0.00,0,Wunderground v.1.15,2013-07-17 12:26:00,
2013-07-17 05:32:00,52.5,49.7,29.94,NNW,342,0.0,0.0,90,0.00,,,0.00,0,Wunderground v.1.15,2013-07-17 12:32:00,
2013-07-17 05:38:00,52.5,49.7,29.94,NNW,342,0.0,0.0,90,0.00,,,0.00,0,Wunderground v.1.15,2013-07-17 12:38:00,
2013-07-17 05:44:00,52.5,49.7,29.94,NNW,342,0.0,0.0,90,0.00,,,0.00,0,Wunderground v.1.15,2013-07-17 12:44:00,
2013-07-17 05:50:00,52.5,49.7,29.95,NNW,343,0.0,0.0,90,0.00,,,0.00,0,Wunderground v.1.15,2013-07-17 12:50:00,
2013-07-17 05:56:00,52.5,49.7,29.95,NNW,343,0.0,0.0,90,0.00,,,0.00,5,Wunderground v.1.15,2013-07-17 12:56:00,
2013-07-17 06:02:00,52.4,49.6,29.95,NNW,343,0.0,1.0,90,0.00,,,0.00,7,Wunderground v.1.15,2013-07-17 13:02:00,
2013-07-17 06:08:00,52.5,49.7,29.95,NNW,343,0.0,1.0,90,0.00,,,0.00,9,Wunderground v.1.15,2013-07-17 13:08:00,
2013-07-17 06:14:00,52.5,49.7,29.96,NNW,343,0.0,0.0,90,0.00,,,0.00,12,Wunderground v.1.15,2013-07-17 13:14:00,
2013-07-17 06:20:00,52.6,49.8,29.96,NNW,343,0.0,0.0,90,0.00,,,0.00,14,Wunderground v.1.15,2013-07-17 13:20:00,
2013-07-17 06:26:00,52.7,49.8,29.96,NNW,343,0.0,0.0,90,0.00,,,0.00,18,Wunderground v.1.15,2013-07-17 13:26:00,
2013-07-17 06:32:00,52.8,49.9,29.96,NNW,343,0.0,0.0,90,0.00,,,0.00,19,Wunderground v.1.15,2013-07-17 13:32:00,
2013-07-17 06:38:00,52.9,50.0,29.97,NNW,343,0.0,0.0,90,0.00,,,0.00,21,Wunderground v.1.15,2013-07-17 13:38:00,
2013-07-17 06:44:00,53.0,50.1,29.97,NNW,342,0.0,0.0,90,0.00,,,0.00,23,Wunderground v.1.15,2013-07-17 13:44:00,
2013-07-17 06:50:00,53.4,50.5,29.97,NNW,341,0.0,0.0,90,0.00,,,0.00,25,Wunderground v.1.15,2013-07-17 13:50:00,
2013-07-17 06:56:00,53.6,50.7,29.97,NNW,341,0.0,0.0,90,0.00,,,0.00,26,Wunderground v.1.15,2013-07-17 13:56:00,
2013-07-17 07:02:00,53.9,51.0,29.97,NNW,348,0.0,0.0,90,0.00,,,0.00,28,Wunderground v.1.15,2013-07-17 14:02:00,
2013-07-17 07:08:00,54.2,51.3,29.97,NNW,346,0.0,0.0,90,0.00,,,0.00,30,Wunderground v.1.15,2013-07-17 14:08:00,
2013-07-17 07:14:00,54.6,51.7,29.97,NNW,346,0.0,0.0,90,0.00,,,0.00,30,Wunderground v.1.15,2013-07-17 14:14:00,
2013-07-17 07:20:00,55.0,52.1,29.98,NNW,345,0.0,0.0,90,0.00,,,0.00,32,Wunderground v.1.15,2013-07-17 14:20:00,
2013-07-17 07:26:00,55.5,52.6,29.98,NNW,344,0.0,0.0,90,0.00,,,0.00,33,Wunderground v.1.15,2013-07-17 14:26:00,
2013-07-17 07:32:00,55.8,52.9,29.98,NNW,332,0.0,0.0,90,0.00,,,0.00,33,Wunderground v.1.15,2013-07-17 14:32:00,
2013-07-17 07:38:00,56.2,53.3,29.98,NNW,339,0.0,0.0,90,0.00,,,0.00,35,Wunderground v.1.15,2013-07-17 14:38:00,
2013-07-17 07:44:00,56.6,53.7,29.98,NNE,16,0.0,0.0,90,0.00,,,0.00,35,Wunderground v.1.15,2013-07-17 14:44:00,
2013-07-17 07:50:00,57.0,53.8,29.98,NNE,16,0.0,0.0,89,0.00,,,0.00,258,Wunderground v.1.15,2013-07-17 14:50:00,
2013-07-17 07:56:00,57.6,54.4,29.98,NNE,17,0.0,0.0,89,0.00,,,0.00,274,Wunderground v.1.15,2013-07-17 14:56:00,
2013-07-17 08:02:00,58.5,55.0,29.98,NW,320,0.0,4.0,88,0.00,,,0.00,290,Wunderground v.1.15,2013-07-17 15:02:00,
2013-07-17 08:08:00,58.9,55.0,29.98,NW,323,1.0,5.0,87,0.00,,,0.00,308,Wunderground v.1.15,2013-07-17 15:08:00,
2013-07-17 08:14:00,59.7,55.5,29.99,NW,324,1.0,1.0,86,0.00,,,0.00,323,Wunderground v.1.15,2013-07-17 15:14:00,
2013-07-17 08:20:00,60.3,55.8,29.99,NW,316,1.0,1.0,85,0.00,,,0.00,350,Wunderground v.1.15,2013-07-17 15:20:00,
2013-07-17 08:26:00,60.8,55.9,29.99,NW,321,1.0,3.0,84,0.00,,,0.00,369,Wunderground v.1.15,2013-07-17 15:26:00,
2013-07-17 08:32:00,61.9,56.3,29.99,NW,325,0.0,3.0,82,0.00,,,0.00,390,Wunderground v.1.15,2013-07-17 15:32:00,
2013-07-17 08:38:00,62.8,56.5,30.00,NNW,333,0.0,3.0,80,0.00,,,0.00,413,Wunderground v.1.15,2013-07-17 15:38:00,
2013-07-17 08:44:00,63.5,56.5,30.00,NNW,342,0.0,0.0,78,0.00,,,0.00,441,Wunderground v.1.15,2013-07-17 15:44:00,
2013-07-17 08:50:00,64.0,56.6,30.00,NNW,344,0.0,0.0,77,0.00,,,0.00,469,Wunderground v.1.15,2013-07-17 15:50:00,
2013-07-17 08:56:00,64.6,56.9,30.00,NNW,344,0.0,0.0,76,0.00,,,0.00,492,Wunderground v.1.15,2013-07-17 15:56:00,
2013-07-17 09:02:00,65.1,56.6,30.00,NNW,340,0.0,7.0,74,0.00,,,0.00,512,Wunderground v.1.15,2013-07-17 16:02:00,
2013-07-17 09:08:00,65.5,56.6,30.00,NNW,336,0.0,7.0,73,0.00,,,0.00,531,Wunderground v.1.15,2013-07-17 16:08:00,
2013-07-17 09:14:00,66.1,57.2,30.00,NNW,336,0.0,1.0,73,0.00,,,0.00,550,Wunderground v.1.15,2013-07-17 16:14:00,
2013-07-17 09:20:00,66.7,57.4,30.00,NNW,335,0.0,0.0,72,0.00,,,0.00,570,Wunderground v.1.15,2013-07-17 16:20:00,
2013-07-17 09:26:00,67.4,57.3,30.00,NNW,346,0.0,0.0,70,0.00,,,0.00,587,Wunderground v.1.15,2013-07-17 16:26:00,
2013-07-17 09:32:00,67.8,56.9,30.00,North,355,0.0,3.0,68,0.00,,,0.00,606,Wunderground v.1.15,2013-07-17 16:32:00,
2013-07-17 09:38:00,68.0,57.0,30.00,North,5,0.0,3.0,68,0.00,,,0.00,626,Wunderground v.1.15,2013-07-17 16:38:00,
2013-07-17 09:44:00,68.9,57.5,30.00,North,5,0.0,0.0,67,0.00,,,0.00,643,Wunderground v.1.15,2013-07-17 16:44:00,
2013-07-17 09:50:00,69.6,57.3,30.00,North,5,0.0,0.0,65,0.00,,,0.00,661,Wunderground v.1.15,2013-07-17 16:50:00,
2013-07-17 09:56:00,70.3,57.5,30.00,North,360,0.0,0.0,64,0.00,,,0.00,677,Wunderground v.1.15,2013-07-17 16:56:00,
2013-07-17 10:02:00,71.1,57.4,30.00,NNE,17,0.0,7.0,62,0.00,,,0.00,696,Wunderground v.1.15,2013-07-17 17:02:00,
2013-07-17 10:08:00,71.4,57.7,29.99,NNE,17,0.0,7.0,62,0.00,,,0.00,712,Wunderground v.1.15,2013-07-17 17:08:00,
2013-07-17 10:14:00,72.3,57.6,29.99,NE,43,0.0,1.0,60,0.00,,,0.00,729,Wunderground v.1.15,2013-07-17 17:14:00,
2013-07-17 10:20:00,73.0,57.3,29.99,NE,42,0.0,0.0,58,0.00,,,0.00,742,Wunderground v.1.15,2013-07-17 17:20:00,
2013-07-17 10:26:00,73.4,58.2,29.99,NE,42,0.0,0.0,59,0.00,,,0.00,761,Wunderground v.1.15,2013-07-17 17:26:00,
2013-07-17 10:32:00,73.8,57.1,29.99,NE,43,0.0,0.0,56,0.00,,,0.00,777,Wunderground v.1.15,2013-07-17 17:32:00,
2013-07-17 10:38:00,74.3,57.6,29.99,ENE,59,1.0,3.0,56,0.00,,,0.00,789,Wunderground v.1.15,2013-07-17 17:38:00,
2013-07-17 10:44:00,74.8,57.0,29.99,ENE,59,0.0,0.0,54,0.00,,,0.00,807,Wunderground v.1.15,2013-07-17 17:44:00,
2013-07-17 10:50:00,75.2,56.9,30.00,ENE,59,0.0,0.0,53,0.00,,,0.00,823,Wunderground v.1.15,2013-07-17 17:50:00,
2013-07-17 10:56:00,75.9,57.5,29.99,ENE,59,0.0,0.0,53,0.00,,,0.00,835,Wunderground v.1.15,2013-07-17 17:56:00,
2013-07-17 11:02:00,76.2,57.3,29.99,ENE,61,0.0,5.0,52,0.00,,,0.00,846,Wunderground v.1.15,2013-07-17 18:02:00,
2013-07-17 11:08:00,76.8,57.3,29.99,ENE,61,0.0,5.0,51,0.00,,,0.00,860,Wunderground v.1.15,2013-07-17 18:08:00,
2013-07-17 11:14:00,77.5,57.9,29.98,ENE,61,0.0,0.0,51,0.00,,,0.00,872,Wunderground v.1.15,2013-07-17 18:14:00,
2013-07-17 11:20:00,78.1,56.2,29.99,ENE,61,0.0,0.0,47,0.00,,,0.00,884,Wunderground v.1.15,2013-07-17 18:20:00,
2013-07-17 11:26:00,77.7,58.1,29.98,ENE,60,0.0,0.0,51,0.00,,,0.00,895,Wunderground v.1.15,2013-07-17 18:26:00,
2013-07-17 11:32:00,78.2,57.5,29.99,ENE,59,0.0,0.0,49,0.00,,,0.00,907,Wunderground v.1.15,2013-07-17 18:32:00,
2013-07-17 11:38:00,79.1,58.3,29.99,NE,49,0.0,0.0,49,0.00,,,0.00,916,Wunderground v.1.15,2013-07-17 18:38:00,
2013-07-17 11:44:00,79.6,57.6,29.99,NE,49,0.0,0.0,47,0.00,,,0.00,923,Wunderground v.1.15,2013-07-17 18:44:00,
2013-07-17 11:50:00,80.0,58.5,29.98,NE,50,0.0,0.0,48,0.00,,,0.00,933,Wunderground v.1.15,2013-07-17 18:50:00,
2013-07-17 11:56:00,80.1,57.5,29.98,NE,50,0.0,5.0,46,0.00,,,0.00,944,Wunderground v.1.15,2013-07-17 18:56:00,
2013-07-17 12:02:00,80.4,58.3,29.98,NE,37,0.0,5.0,47,0.00,,,0.00,947,Wunderground v.1.15,2013-07-17 19:02:00,
2013-07-17 12:08:00,81.0,58.9,29.98,NNE,28,0.0,5.0,47,0.00,,,0.00,963,Wunderground v.1.15,2013-07-17 19:08:00,
2013-07-17 12:14:00,81.1,57.7,29.98,North,9,0.0,0.0,45,0.00,,,0.00,965,Wunderground v.1.15,2013-07-17 19:14:00,
2013-07-17 12:20:00,81.7,58.9,29.98,North,9,0.0,0.0,46,0.00,,,0.00,969,Wunderground v.1.15,2013-07-17 19:20:00,
2013-07-17 12:26:00,82.2,58.1,29.97,North,5,0.0,0.0,44,0.00,,,0.00,979,Wunderground v.1.15,2013-07-17 19:26:00,
2013-07-17 12:32:00,82.7,59.2,29.97,North,5,0.0,0.0,45,0.00,,,0.00,981,Wunderground v.1.15,2013-07-17 19:32:00,
2013-07-17 12:38:00,82.6,60.3,29.97,North,349,0.0,0.0,47,0.00,,,0.00,986,Wunderground v.1.15,2013-07-17 19:38:00,
2013-07-17 12:44:00,83.3,58.5,29.97,North,349,0.0,0.0,43,0.00,,,0.00,993,Wunderground v.1.15,2013-07-17 19:44:00,
2013-07-17 12:50:00,84.1,58.5,29.97,NNE,22,0.0,4.0,42,0.00,,,0.00,995,Wunderground v.1.15,2013-07-17 19:50:00,
2013-07-17 12:56:00,84.4,58.1,29.97,NNW,348,1.0,4.0,41,0.00,,,0.00,998,Wunderground v.1.15,2013-07-17 19:56:00,
2013-07-17 13:02:00,85.2,59.5,29.96,NE,44,1.0,5.0,42,0.00,,,0.00,1002,Wunderground v.1.15,2013-07-17 20:02:00,
2013-07-17 13:08:00,85.7,59.3,29.96,NE,45,1.0,5.0,41,0.00,,,0.00,1005,Wunderground v.1.15,2013-07-17 20:08:00,
2013-07-17 13:14:00,86.1,57.5,29.96,NNW,331,1.0,7.0,38,0.00,,,0.00,1007,Wunderground v.1.15,2013-07-17 20:14:00,
2013-07-17 13:20:00,86.2,56.9,29.96,NNW,328,3.0,3.0,37,0.00,,,0.00,1009,Wunderground v.1.15,2013-07-17 20:20:00,
2013-07-17 13:26:00,86.2,56.9,29.96,NNW,343,1.0,3.0,37,0.00,,,0.00,1007,Wunderground v.1.15,2013-07-17 20:26:00,
2013-07-17 13:32:00,86.6,58.7,29.96,NW,306,1.0,6.0,39,0.00,,,0.00,1009,Wunderground v.1.15,2013-07-17 20:32:00,
2013-07-17 13:38:00,86.5,57.9,29.96,NW,306,1.0,6.0,38,0.00,,,0.00,1004,Wunderground v.1.15,2013-07-17 20:38:00,
2013-07-17 13:44:00,86.7,57.3,29.95,NNW,333,1.0,2.0,37,0.00,,,0.00,1000,Wunderground v.1.15,2013-07-17 20:44:00,
2013-07-17 13:50:00,86.9,56.7,29.95,NNW,338,2.0,2.0,36,0.00,,,0.00,998,Wunderground v.1.15,2013-07-17 20:50:00,
2013-07-17 13:56:00,87.0,56.8,29.95,NNW,333,1.0,2.0,36,0.00,,,0.00,997,Wunderground v.1.15,2013-07-17 20:56:00,
2013-07-17 14:02:00,87.2,58.5,29.95,NNW,331,1.0,7.0,38,0.00,,,0.00,993,Wunderground v.1.15,2013-07-17 21:02:00,
2013-07-17 14:08:00,87.8,56.7,29.95,NW,325,1.0,7.0,35,0.00,,,0.00,988,Wunderground v.1.15,2013-07-17 21:08:00,
2013-07-17 14:14:00,88.1,57.8,29.95,NNW,337,0.0,1.0,36,0.00,,,0.00,981,Wunderground v.1.15,2013-07-17 21:14:00,
2013-07-17 14:20:00,88.1,55.4,29.95,NE,40,1.0,1.0,33,0.00,,,0.00,977,Wunderground v.1.15,2013-07-17 21:20:00,
2013-07-17 14:26:00,88.0,54.4,29.94,NE,55,2.0,5.0,32,0.00,,,0.00,979,Wunderground v.1.15,2013-07-17 21:26:00,
2013-07-17 14:32:00,88.8,55.1,29.94,NE,55,1.0,1.0,32,0.00,,,0.00,972,Wunderground v.1.15,2013-07-17 21:32:00,
2013-07-17 14:38:00,89.4,54.8,29.94,NE,46,1.0,2.0,31,0.00,,,0.00,963,Wunderground v.1.15,2013-07-17 21:38:00,
2013-07-17 14:44:00,89.8,55.1,29.94,WNW,289,1.0,4.0,31,0.00,,,0.00,960,Wunderground v.1.15,2013-07-17 21:44:00,
2013-07-17 14:50:00,90.0,54.4,29.93,WNW,289,1.0,1.0,30,0.00,,,0.00,947,Wunderground v.1.15,2013-07-17 21:50:00,
2013-07-17 14:56:00,90.7,54.1,29.93,NNW,346,0.0,1.0,29,0.00,,,0.00,940,Wunderground v.1.15,2013-07-17 21:56:00,
2013-07-17 15:02:00,90.4,51.9,29.93,NNW,336,1.0,8.0,27,0.00,,,0.00,933,Wunderground v.1.15,2013-07-17 22:02:00,
2013-07-17 15:08:00,90.3,52.8,29.93,NNE,19,0.0,8.0,28,0.00,,,0.00,921,Wunderground v.1.15,2013-07-17 22:08:00,
2013-07-17 15:14:00,90.2,52.7,29.93,NNE,20,0.0,2.0,28,0.00,,,0.00,911,Wunderground v.1.15,2013-07-17 22:14:00,
2013-07-17 15:20:00,90.6,54.0,29.93,NNE,12,0.0,0.0,29,0.00,,,0.00,900,Wunderground v.1.15,2013-07-17 22:20:00,
2013-07-17 15:26:00,91.0,51.4,29.93,SSW,198,1.0,4.0,26,0.00,,,0.00,889,Wunderground v.1.15,2013-07-17 22:26:00,
2013-07-17 15:32:00,91.4,52.7,29.92,SSW,199,0.0,1.0,27,0.00,,,0.00,877,Wunderground v.1.15,2013-07-17 22:32:00,
2013-07-17 15:38:00,90.9,53.3,29.92,SSW,195,0.0,1.0,28,0.00,,,0.00,863,Wunderground v.1.15,2013-07-17 22:38:00,
2013-07-17 15:44:00,90.2,53.6,29.92,SSW,199,0.0,1.0,29,0.00,,,0.00,851,Wunderground v.1.15,2013-07-17 22:44:00,
2013-07-17 15:50:00,90.5,52.9,29.92,SSW,199,0.0,0.0,28,0.00,,,0.00,840,Wunderground v.1.15,2013-07-17 22:50:00,
2013-07-17 15:56:00,90.8,54.2,29.92,SSW,199,0.0,0.0,29,0.00,,,0.00,819,Wunderground v.1.15,2013-07-17 22:56:00,
2013-07-17 16:02:00,91.0,53.4,29.91,SSW,199,0.0,2.0,28,0.00,,,0.00,807,Wunderground v.1.15,2013-07-17 23:02:00,
2013-07-17 16:08:00,90.7,53.1,29.91,SSW,199,0.0,8.0,28,0.00,,,0.00,793,Wunderground v.1.15,2013-07-17 23:08:00,
2013-07-17 16:14:00,91.3,54.6,29.91,SSW,199,0.0,0.0,29,0.00,,,0.00,777,Wunderground v.1.15,2013-07-17 23:14:00,
2013-07-17 16:20:00,91.5,53.8,29.91,SSW,200,0.0,0.0,28,0.00,,,0.00,761,Wunderground v.1.15,2013-07-17 23:20:00,
2013-07-17 16:26:00,91.7,54.9,29.91,SSW,205,0.0,1.0,29,0.00,,,0.00,744,Wunderground v.1.15,2013-07-17 23:26:00,
2013-07-17 16:32:00,92.0,55.2,29.91,SSW,205,0.0,0.0,29,0.00,,,0.00,729,Wunderground v.1.15,2013-07-17 23:32:00,
2013-07-17 16:38:00,92.3,55.4,29.90,SSW,205,0.0,0.0,29,0.00,,,0.00,710,Wunderground v.1.15,2013-07-17 23:38:00,
2013-07-17 16:44:00,92.4,57.4,29.90,SSW,207,0.0,1.0,31,0.00,,,0.00,696,Wunderground v.1.15,2013-07-17 23:44:00,
2013-07-17 16:50:00,91.9,56.0,29.90,SSW,207,0.0,0.0,30,0.00,,,0.00,677,Wunderground v.1.15,2013-07-17 23:50:00,
2013-07-17 16:58:00,92.1,59.7,29.90,South,190,0.0,3.0,34,0.00,,,0.00,652,Wunderground v.1.15,2013-07-17 23:58:00,
2013-07-17 17:04:00,92.2,56.3,29.90,SW,214,1.0,5.0,30,0.00,,,0.00,635,Wunderground v.1.15,2013-07-18 00:04:00,
2013-07-17 17:10:00,92.2,57.2,29.90,SSW,198,1.0,1.0,31,0.00,,,0.00,615,Wunderground v.1.15,2013-07-18 00:10:00,
2013-07-17 17:16:00,91.8,57.7,29.90,SSW,202,1.0,2.0,32,0.00,,,0.00,53,Wunderground v.1.15,2013-07-18 00:16:00,
2013-07-17 17:22:00,91.1,55.3,29.89,SSW,202,1.0,1.0,30,0.00,,,0.00,132,Wunderground v.1.15,2013-07-18 00:22:00,
2013-07-17 17:28:00,91.3,56.4,29.89,SSW,202,0.0,1.0,31,0.00,,,0.00,557,Wunderground v.1.15,2013-07-18 00:28:00,
2013-07-17 17:34:00,91.8,57.7,29.89,SSW,202,0.0,0.0,32,0.00,,,0.00,538,Wunderground v.1.15,2013-07-18 00:34:00,
2013-07-17 17:40:00,91.8,57.7,29.89,SSW,202,0.0,0.0,32,0.00,,,0.00,519,Wunderground v.1.15,2013-07-18 00:40:00,
2013-07-17 17:46:00,92.2,58.9,29.89,South,180,0.0,0.0,33,0.00,,,0.00,497,Wunderground v.1.15,2013-07-18 00:46:00,
2013-07-17 17:52:00,92.1,58.0,29.88,ESE,115,1.0,7.0,32,0.00,,,0.00,478,Wunderground v.1.15,2013-07-18 00:52:00,
2013-07-17 17:58:00,91.9,58.7,29.88,ESE,113,2.0,7.0,33,0.00,,,0.00,457,Wunderground v.1.15,2013-07-18 00:58:00,
2013-07-17 18:04:00,91.5,58.3,29.88,ESE,121,2.0,8.0,33,0.00,,,0.00,436,Wunderground v.1.15,2013-07-18 01:04:00,
2013-07-17 18:10:00,91.4,59.9,29.88,ESE,116,2.0,2.0,35,0.00,,,0.00,417,Wunderground v.1.15,2013-07-18 01:10:00,
2013-07-17 18:16:00,91.6,59.3,29.88,ESE,112,0.0,7.0,34,0.00,,,0.00,397,Wunderground v.1.15,2013-07-18 01:16:00,
2013-07-17 18:22:00,91.3,58.2,29.88,ESE,115,1.0,3.0,33,0.00,,,0.00,376,Wunderground v.1.15,2013-07-18 01:22:00,
2013-07-17 18:28:00,91.3,59.0,29.88,ESE,111,1.0,3.0,34,0.00,,,0.00,355,Wunderground v.1.15,2013-07-18 01:28:00,
2013-07-17 18:34:00,91.1,59.6,29.88,ESE,115,1.0,1.0,35,0.00,,,0.00,334,Wunderground v.1.15,2013-07-18 01:34:00,
2013-07-17 18:40:00,90.9,60.3,29.88,ESE,116,1.0,1.0,36,0.00,,,0.00,315,Wunderground v.1.15,2013-07-18 01:40:00,
2013-07-17 18:46:00,90.7,60.1,29.88,SE,140,0.0,1.0,36,0.00,,,0.00,295,Wunderground v.1.15,2013-07-18 01:46:00,
2013-07-17 18:52:00,90.0,61.0,29.88,SE,140,0.0,0.0,38,0.00,,,0.00,276,Wunderground v.1.15,2013-07-18 01:52:00,
2013-07-17 18:58:00,89.4,60.5,29.88,SE,142,0.0,2.0,38,0.00,,,0.00,51,Wunderground v.1.15,2013-07-18 01:58:00,
2013-07-17 19:04:00,88.5,61.1,29.88,SE,138,0.0,8.0,40,0.00,,,0.00,76,Wunderground v.1.15,2013-07-18 02:04:00,
2013-07-17 19:10:00,87.6,61.0,29.88,SE,137,1.0,1.0,41,0.00,,,0.00,47,Wunderground v.1.15,2013-07-18 02:10:00,
2013-07-17 19:16:00,86.8,61.0,29.88,SE,138,1.0,1.0,42,0.00,,,0.00,93,Wunderground v.1.15,2013-07-18 02:16:00,
2013-07-17 19:22:00,86.3,61.2,29.88,SE,138,0.0,0.0,43,0.00,,,0.00,63,Wunderground v.1.15,2013-07-18 02:22:00,
2013-07-17 19:28:00,85.7,61.9,29.89,SE,138,0.0,0.0,45,0.00,,,0.00,132,Wunderground v.1.15,2013-07-18 02:28:00,
2013-07-17 19:34:00,85.7,61.9,29.88,SE,138,0.0,0.0,45,0.00,,,0.00,111,Wunderground v.1.15,2013-07-18 02:34:00,
2013-07-17 19:40:00,85.6,61.8,29.88,SE,138,0.0,0.0,45,0.00,,,0.00,90,Wunderground v.1.15,2013-07-18 02:40:00,
2013-07-17 19:46:00,85.6,61.8,29.88,SE,138,0.0,0.0,45,0.00,,,0.00,70,Wunderground v.1.15,2013-07-18 02:46:00,
2013-07-17 19:52:00,85.6,61.8,29.88,SE,138,0.0,0.0,45,0.00,,,0.00,53,Wunderground v.1.15,2013-07-18 02:52:00,
2013-07-17 19:58:00,85.3,62.2,29.88,SE,138,0.0,0.0,46,0.00,,,0.00,39,Wunderground v.1.15,2013-07-18 02:58:00,
2013-07-17 20:04:00,84.8,61.7,29.88,SE,138,0.0,9.0,46,0.00,,,0.00,26,Wunderground v.1.15,2013-07-18 03:04:00,
2013-07-17 20:10:00,83.9,61.5,29.88,SE,138,0.0,0.0,47,0.00,,,0.00,16,Wunderground v.1.15,2013-07-18 03:10:00,
2013-07-17 20:16:00,82.7,61.6,29.88,SE,138,0.0,0.0,49,0.00,,,0.00,12,Wunderground v.1.15,2013-07-18 03:16:00,
2013-07-17 20:22:00,81.5,61.6,29.88,SE,138,0.0,0.0,51,0.00,,,0.00,9,Wunderground v.1.15,2013-07-18 03:22:00,
2013-07-17 21:06:00,75.6,60.3,29.89,SE,138,0.0,0.0,59,0.00,,,0.00,0,Wunderground v.1.15,2013-07-18 04:06:00,
2013-07-17 21:10:00,75.2,60.4,29.89,SE,138,0.0,0.0,60,0.00,,,0.00,0,Wunderground v.1.15,2013-07-18 04:10:00,
2013-07-17 21:14:00,74.8,60.0,29.89,SE,138,0.0,0.0,60,0.00,,,0.00,0,Wunderground v.1.15,2013-07-18 04:14:00,
2013-07-17 21:20:00,74.3,60.0,29.89,SE,138,0.0,0.0,61,0.00,,,0.00,0,Wunderground v.1.15,2013-07-18 04:20:00,
2013-07-17 21:26:00,73.7,59.4,29.89,SE,138,0.0,0.0,61,0.00,,,0.00,0,Wunderground v.1.15,2013-07-18 04:26:00,
2013-07-17 21:32:00,73.3,59.0,29.89,SE,138,0.0,0.0,61,0.00,,,0.00,0,Wunderground v.1.15,2013-07-18 04:32:00,
2013-07-17 21:38:00,73.0,59.2,29.89,SE,138,0.0,0.0,62,0.00,,,0.00,0,Wunderground v.1.15,2013-07-18 04:38:00,
2013-07-17 21:44:00,72.7,58.9,29.89,SE,138,0.0,0.0,62,0.00,,,0.00,0,Wunderground v.1.15,2013-07-18 04:44:00,
2013-07-17 21:50:00,72.5,58.7,29.89,SE,138,0.0,0.0,62,0.00,,,0.00,0,Wunderground v.1.15,2013-07-18 04:50:00,
2013-07-17 21:56:00,72.0,58.7,29.90,SE,138,0.0,0.0,63,0.00,,,0.00,0,Wunderground v.1.15,2013-07-18 04:56:00,
2013-07-17 22:14:00,70.5,57.7,29.90,SE,138,0.0,0.0,64,0.00,,,0.00,0,Wunderground v.1.15,2013-07-18 05:14:00,
2013-07-17 22:20:00,70.1,57.8,29.90,SE,138,0.0,0.0,65,0.00,,,0.00,0,Wunderground v.1.15,2013-07-18 05:20:00,
2013-07-17 22:26:00,69.6,57.7,29.90,SE,138,0.0,0.0,66,0.00,,,0.00,0,Wunderground v.1.15,2013-07-18 05:26:00,
2013-07-17 22:32:00,69.1,57.3,29.90,SE,138,0.0,0.0,66,0.00,,,0.00,0,Wunderground v.1.15,2013-07-18 05:32:00,
2013-07-17 22:38:00,68.7,57.3,29.90,SE,138,0.0,0.0,67,0.00,,,0.00,0,Wunderground v.1.15,2013-07-18 05:38:00,
2013-07-17 22:44:00,68.3,57.3,29.90,SE,138,0.0,0.0,68,0.00,,,0.00,0,Wunderground v.1.15,2013-07-18 05:44:00,
2013-07-17 22:50:00,67.9,56.9,29.90,SE,138,0.0,0.0,68,0.00,,,0.00,0,Wunderground v.1.15,2013-07-18 05:50:00,
2013-07-17 22:56:00,67.5,57.0,29.90,SE,138,0.0,0.0,69,0.00,,,0.00,0,Wunderground v.1.15,2013-07-18 05:56:00,
2013-07-17 23:02:00,67.3,56.8,29.90,SE,138,0.0,0.0,69,0.00,,,0.00,0,Wunderground v.1.15,2013-07-18 06:02:00,
2013-07-17 23:08:00,67.0,56.9,29.90,SE,138,0.0,0.0,70,0.00,,,0.00,0,Wunderground v.1.15,2013-07-18 06:08:00,
2013-07-17 23:14:00,66.7,56.6,29.90,SE,138,0.0,0.0,70,0.00,,,0.00,0,Wunderground v.1.15,2013-07-18 06:14:00,
2013-07-17 23:20:00,66.3,56.2,29.91,SE,138,0.0,0.0,70,0.00,,,0.00,0,Wunderground v.1.15,2013-07-18 06:20:00,
2013-07-17 23:26:00,66.0,56.3,29.91,SE,138,0.0,0.0,71,0.00,,,0.00,0,Wunderground v.1.15,2013-07-18 06:26:00,
2013-07-17 23:32:00,65.6,55.9,29.91,SE,138,0.0,0.0,71,0.00,,,0.00,0,Wunderground v.1.15,2013-07-18 06:32:00,
2013-07-17 23:38:00,65.3,56.0,29.91,SE,138,0.0,0.0,72,0.00,,,0.00,0,Wunderground v.1.15,2013-07-18 06:38:00,
2013-07-17 23:44:00,65.1,55.8,29.91,SE,138,0.0,0.0,72,0.00,,,0.00,0,Wunderground v.1.15,2013-07-18 06:44:00,
2013-07-17 23:50:00,64.9,56.0,29.91,SE,138,0.0,0.0,73,0.00,,,0.00,0,Wunderground v.1.15,2013-07-18 06:50:00,
2013-07-17 23:56:00,64.7,55.8,29.91,SE,138,0.0,0.0,73,0.00,,,0.00,0,Wunderground v.1.15,2013-07-18 06:56:00,